sensor_id;sensor_type;location;lat;lon;timestamp;P1;durP1;ratioP1;P2;durP2;ratioP2
4831;SDS011;2430;51.322;7.864;2023-07-20T00:02:04;17.53;;;12.20;;
4831;SDS011;2430;51.322;7.864;2023-07-20T00:04:32;18.87;;;11.60;;
4831;SDS011;2430;51.322;7.864;2023-07-20T00:06:58;22.53;;;11.53;;
4831;SDS011;2430;51.322;7.864;2023-07-20T00:09:25;18.43;;;11.57;;
4831;SDS011;2430;51.322;7.864;2023-07-20T00:11:56;16.90;;;11.73;;
4831;SDS011;2430;51.322;7.864;2023-07-20T00:14:24;13.40;;;10.73;;
4831;SDS011;2430;51.322;7.864;2023-07-20T00:16:51;17.90;;;11.80;;
4831;SDS011;2430;51.322;7.864;2023-07-20T00:19:21;15.97;;;11.03;;
4831;SDS011;2430;51.322;7.864;2023-07-20T00:21:47;18.67;;;10.97;;
4831;SDS011;2430;51.322;7.864;2023-07-20T00:24:14;19.73;;;11.17;;
4831;SDS011;2430;51.322;7.864;2023-07-20T00:26:40;15.40;;;10.50;;
4831;SDS011;2430;51.322;7.864;2023-07-20T00:29:08;19.57;;;12.03;;
4831;SDS011;2430;51.322;7.864;2023-07-20T00:31:34;16.27;;;10.90;;
4831;SDS011;2430;51.322;7.864;2023-07-20T00:34:02;18.83;;;11.40;;
4831;SDS011;2430;51.322;7.864;2023-07-20T00:36:28;14.00;;;10.37;;
4831;SDS011;2430;51.322;7.864;2023-07-20T00:38:54;15.93;;;11.83;;
4831;SDS011;2430;51.322;7.864;2023-07-20T00:41:21;22.30;;;10.93;;
4831;SDS011;2430;51.322;7.864;2023-07-20T00:43:47;23.00;;;11.17;;
4831;SDS011;2430;51.322;7.864;2023-07-20T00:46:15;19.77;;;10.57;;
4831;SDS011;2430;51.322;7.864;2023-07-20T00:48:41;20.17;;;11.20;;
4831;SDS011;2430;51.322;7.864;2023-07-20T00:51:08;21.93;;;10.77;;
4831;SDS011;2430;51.322;7.864;2023-07-20T00:53:35;17.07;;;11.30;;
4831;SDS011;2430;51.322;7.864;2023-07-20T00:56:01;21.00;;;11.10;;
4831;SDS011;2430;51.322;7.864;2023-07-20T00:58:28;25.83;;;10.63;;
4831;SDS011;2430;51.322;7.864;2023-07-20T01:00:55;14.63;;;10.23;;
4831;SDS011;2430;51.322;7.864;2023-07-20T01:03:22;22.03;;;12.50;;
4831;SDS011;2430;51.322;7.864;2023-07-20T01:05:51;27.13;;;11.40;;
4831;SDS011;2430;51.322;7.864;2023-07-20T01:08:23;20.73;;;11.20;;
4831;SDS011;2430;51.322;7.864;2023-07-20T01:10:51;18.53;;;11.13;;
4831;SDS011;2430;51.322;7.864;2023-07-20T01:13:19;18.00;;;11.90;;
4831;SDS011;2430;51.322;7.864;2023-07-20T01:15:48;15.20;;;10.57;;
4831;SDS011;2430;51.322;7.864;2023-07-20T01:18:15;17.97;;;11.63;;
4831;SDS011;2430;51.322;7.864;2023-07-20T01:20:42;18.17;;;12.33;;
4831;SDS011;2430;51.322;7.864;2023-07-20T01:23:19;19.57;;;11.13;;
4831;SDS011;2430;51.322;7.864;2023-07-20T01:25:56;17.80;;;10.90;;
4831;SDS011;2430;51.322;7.864;2023-07-20T01:31:18;17.90;;;12.20;;
4831;SDS011;2430;51.322;7.864;2023-07-20T01:33:46;25.10;;;11.80;;
4831;SDS011;2430;51.322;7.864;2023-07-20T01:36:13;17.30;;;12.07;;
4831;SDS011;2430;51.322;7.864;2023-07-20T01:38:40;15.33;;;11.53;;
4831;SDS011;2430;51.322;7.864;2023-07-20T01:41:08;20.60;;;11.57;;
4831;SDS011;2430;51.322;7.864;2023-07-20T01:43:34;15.80;;;12.37;;
4831;SDS011;2430;51.322;7.864;2023-07-20T01:46:00;19.50;;;12.87;;
4831;SDS011;2430;51.322;7.864;2023-07-20T01:48:28;18.43;;;13.00;;
4831;SDS011;2430;51.322;7.864;2023-07-20T01:50:54;17.80;;;12.80;;
4831;SDS011;2430;51.322;7.864;2023-07-20T01:53:21;16.77;;;13.37;;
4831;SDS011;2430;51.322;7.864;2023-07-20T01:55:47;17.47;;;12.07;;
4831;SDS011;2430;51.322;7.864;2023-07-20T01:58:13;19.17;;;11.90;;
4831;SDS011;2430;51.322;7.864;2023-07-20T02:00:40;16.97;;;11.53;;
4831;SDS011;2430;51.322;7.864;2023-07-20T02:03:06;24.00;;;12.47;;
4831;SDS011;2430;51.322;7.864;2023-07-20T02:05:34;20.20;;;12.70;;
4831;SDS011;2430;51.322;7.864;2023-07-20T02:08:00;16.67;;;12.50;;
4831;SDS011;2430;51.322;7.864;2023-07-20T02:10:27;18.90;;;12.10;;
4831;SDS011;2430;51.322;7.864;2023-07-20T02:12:53;29.80;;;13.10;;
4831;SDS011;2430;51.322;7.864;2023-07-20T02:15:20;20.37;;;12.23;;
4831;SDS011;2430;51.322;7.864;2023-07-20T02:17:46;18.90;;;11.97;;
4831;SDS011;2430;51.322;7.864;2023-07-20T02:20:13;28.77;;;12.50;;
4831;SDS011;2430;51.322;7.864;2023-07-20T02:22:41;31.77;;;13.87;;
4831;SDS011;2430;51.322;7.864;2023-07-20T02:25:08;24.60;;;13.57;;
4831;SDS011;2430;51.322;7.864;2023-07-20T02:27:35;22.57;;;13.90;;
4831;SDS011;2430;51.322;7.864;2023-07-20T02:30:02;20.67;;;13.60;;
4831;SDS011;2430;51.322;7.864;2023-07-20T02:32:29;20.67;;;14.00;;
4831;SDS011;2430;51.322;7.864;2023-07-20T02:34:56;19.83;;;14.00;;
4831;SDS011;2430;51.322;7.864;2023-07-20T02:37:23;28.30;;;16.20;;
4831;SDS011;2430;51.322;7.864;2023-07-20T02:39:51;26.00;;;13.70;;
4831;SDS011;2430;51.322;7.864;2023-07-20T02:42:17;26.23;;;13.97;;
4831;SDS011;2430;51.322;7.864;2023-07-20T02:44:44;19.37;;;13.70;;
4831;SDS011;2430;51.322;7.864;2023-07-20T02:47:14;25.57;;;14.00;;
4831;SDS011;2430;51.322;7.864;2023-07-20T02:49:40;29.40;;;13.60;;
4831;SDS011;2430;51.322;7.864;2023-07-20T02:52:07;19.23;;;14.00;;
4831;SDS011;2430;51.322;7.864;2023-07-20T02:54:34;23.43;;;14.13;;
4831;SDS011;2430;51.322;7.864;2023-07-20T02:57:02;21.90;;;13.93;;
4831;SDS011;2430;51.322;7.864;2023-07-20T02:59:29;21.80;;;14.33;;
4831;SDS011;2430;51.322;7.864;2023-07-20T03:01:55;27.53;;;15.50;;
4831;SDS011;2430;51.322;7.864;2023-07-20T03:04:22;23.30;;;14.83;;
4831;SDS011;2430;51.322;7.864;2023-07-20T03:06:50;22.60;;;14.67;;
4831;SDS011;2430;51.322;7.864;2023-07-20T03:09:16;23.80;;;14.80;;
4831;SDS011;2430;51.322;7.864;2023-07-20T03:11:43;29.07;;;16.97;;
4831;SDS011;2430;51.322;7.864;2023-07-20T03:14:11;21.97;;;13.43;;
4831;SDS011;2430;51.322;7.864;2023-07-20T03:16:37;29.87;;;15.07;;
4831;SDS011;2430;51.322;7.864;2023-07-20T03:19:04;25.13;;;15.33;;
4831;SDS011;2430;51.322;7.864;2023-07-20T03:21:31;29.07;;;15.87;;
4831;SDS011;2430;51.322;7.864;2023-07-20T03:23:57;23.90;;;15.23;;
4831;SDS011;2430;51.322;7.864;2023-07-20T03:26:24;24.70;;;15.30;;
4831;SDS011;2430;51.322;7.864;2023-07-20T03:28:51;27.23;;;16.23;;
4831;SDS011;2430;51.322;7.864;2023-07-20T03:31:19;33.30;;;16.33;;
4831;SDS011;2430;51.322;7.864;2023-07-20T03:33:45;23.37;;;16.43;;
4831;SDS011;2430;51.322;7.864;2023-07-20T03:36:15;26.77;;;15.73;;
4831;SDS011;2430;51.322;7.864;2023-07-20T03:38:42;27.27;;;16.83;;
4831;SDS011;2430;51.322;7.864;2023-07-20T03:41:09;24.80;;;16.00;;
4831;SDS011;2430;51.322;7.864;2023-07-20T03:43:37;21.40;;;14.93;;
4831;SDS011;2430;51.322;7.864;2023-07-20T03:46:03;20.53;;;15.67;;
4831;SDS011;2430;51.322;7.864;2023-07-20T03:48:33;29.30;;;15.63;;
4831;SDS011;2430;51.322;7.864;2023-07-20T03:51:00;24.23;;;15.63;;
4831;SDS011;2430;51.322;7.864;2023-07-20T03:53:26;25.47;;;15.40;;
4831;SDS011;2430;51.322;7.864;2023-07-20T03:55:53;24.20;;;14.50;;
4831;SDS011;2430;51.322;7.864;2023-07-20T03:58:20;25.90;;;13.57;;
4831;SDS011;2430;51.322;7.864;2023-07-20T04:00:47;24.73;;;13.80;;
4831;SDS011;2430;51.322;7.864;2023-07-20T04:03:14;24.63;;;13.97;;
4831;SDS011;2430;51.322;7.864;2023-07-20T04:05:42;23.47;;;12.63;;
4831;SDS011;2430;51.322;7.864;2023-07-20T04:08:08;17.10;;;12.73;;
4831;SDS011;2430;51.322;7.864;2023-07-20T04:10:36;21.33;;;12.97;;
4831;SDS011;2430;51.322;7.864;2023-07-20T04:13:02;25.90;;;12.90;;
4831;SDS011;2430;51.322;7.864;2023-07-20T04:15:29;23.10;;;13.97;;
4831;SDS011;2430;51.322;7.864;2023-07-20T04:17:55;21.90;;;14.53;;
4831;SDS011;2430;51.322;7.864;2023-07-20T04:20:22;27.70;;;15.07;;
4831;SDS011;2430;51.322;7.864;2023-07-20T04:22:50;20.97;;;13.67;;
4831;SDS011;2430;51.322;7.864;2023-07-20T04:25:16;24.27;;;16.00;;
4831;SDS011;2430;51.322;7.864;2023-07-20T04:27:42;21.93;;;13.73;;
4831;SDS011;2430;51.322;7.864;2023-07-20T04:30:10;27.93;;;15.40;;
4831;SDS011;2430;51.322;7.864;2023-07-20T04:32:36;20.77;;;14.53;;
4831;SDS011;2430;51.322;7.864;2023-07-20T04:35:05;21.20;;;14.60;;
4831;SDS011;2430;51.322;7.864;2023-07-20T04:37:32;20.87;;;14.70;;
4831;SDS011;2430;51.322;7.864;2023-07-20T04:40:00;22.50;;;15.73;;
4831;SDS011;2430;51.322;7.864;2023-07-20T04:42:26;25.20;;;15.40;;
4831;SDS011;2430;51.322;7.864;2023-07-20T04:44:53;21.77;;;15.87;;
4831;SDS011;2430;51.322;7.864;2023-07-20T04:47:19;25.90;;;16.77;;
4831;SDS011;2430;51.322;7.864;2023-07-20T04:49:45;25.70;;;17.00;;
4831;SDS011;2430;51.322;7.864;2023-07-20T04:52:11;24.63;;;17.97;;
4831;SDS011;2430;51.322;7.864;2023-07-20T04:54:38;23.93;;;16.10;;
4831;SDS011;2430;51.322;7.864;2023-07-20T04:57:11;21.00;;;16.33;;
4831;SDS011;2430;51.322;7.864;2023-07-20T04:59:37;27.00;;;17.70;;
4831;SDS011;2430;51.322;7.864;2023-07-20T05:02:04;22.40;;;16.33;;
4831;SDS011;2430;51.322;7.864;2023-07-20T05:04:30;27.10;;;17.90;;
4831;SDS011;2430;51.322;7.864;2023-07-20T05:06:57;22.60;;;16.33;;
4831;SDS011;2430;51.322;7.864;2023-07-20T05:09:23;24.27;;;15.70;;
4831;SDS011;2430;51.322;7.864;2023-07-20T05:11:49;25.60;;;16.80;;
4831;SDS011;2430;51.322;7.864;2023-07-20T05:14:17;18.23;;;14.63;;
4831;SDS011;2430;51.322;7.864;2023-07-20T05:16:44;23.10;;;16.27;;
4831;SDS011;2430;51.322;7.864;2023-07-20T05:19:10;21.60;;;14.70;;
4831;SDS011;2430;51.322;7.864;2023-07-20T05:21:36;18.13;;;14.67;;
4831;SDS011;2430;51.322;7.864;2023-07-20T05:24:03;18.87;;;14.90;;
4831;SDS011;2430;51.322;7.864;2023-07-20T05:26:29;21.47;;;14.47;;
4831;SDS011;2430;51.322;7.864;2023-07-20T05:28:55;20.23;;;14.53;;
4831;SDS011;2430;51.322;7.864;2023-07-20T05:31:23;22.93;;;14.10;;
4831;SDS011;2430;51.322;7.864;2023-07-20T05:33:51;20.87;;;14.37;;
4831;SDS011;2430;51.322;7.864;2023-07-20T05:36:17;17.37;;;13.70;;
4831;SDS011;2430;51.322;7.864;2023-07-20T05:38:44;16.03;;;13.60;;
4831;SDS011;2430;51.322;7.864;2023-07-20T05:41:10;18.53;;;14.23;;
4831;SDS011;2430;51.322;7.864;2023-07-20T05:43:37;18.90;;;13.10;;
4831;SDS011;2430;51.322;7.864;2023-07-20T05:46:03;21.13;;;14.00;;
4831;SDS011;2430;51.322;7.864;2023-07-20T05:48:32;17.70;;;13.10;;
4831;SDS011;2430;51.322;7.864;2023-07-20T05:50:58;21.27;;;13.53;;
4831;SDS011;2430;51.322;7.864;2023-07-20T05:53:25;20.30;;;13.00;;
4831;SDS011;2430;51.322;7.864;2023-07-20T05:55:51;16.30;;;13.03;;
4831;SDS011;2430;51.322;7.864;2023-07-20T05:58:18;18.80;;;13.37;;
4831;SDS011;2430;51.322;7.864;2023-07-20T06:00:47;17.87;;;12.80;;
4831;SDS011;2430;51.322;7.864;2023-07-20T06:03:13;21.60;;;14.00;;
4831;SDS011;2430;51.322;7.864;2023-07-20T06:05:41;16.40;;;14.57;;
4831;SDS011;2430;51.322;7.864;2023-07-20T06:08:07;17.57;;;14.20;;
4831;SDS011;2430;51.322;7.864;2023-07-20T06:10:33;19.00;;;15.17;;
4831;SDS011;2430;51.322;7.864;2023-07-20T06:13:00;23.00;;;16.50;;
4831;SDS011;2430;51.322;7.864;2023-07-20T06:15:27;17.60;;;14.70;;
4831;SDS011;2430;51.322;7.864;2023-07-20T06:17:53;20.90;;;15.50;;
4831;SDS011;2430;51.322;7.864;2023-07-20T06:20:20;22.53;;;15.00;;
4831;SDS011;2430;51.322;7.864;2023-07-20T06:22:51;16.20;;;13.30;;
4831;SDS011;2430;51.322;7.864;2023-07-20T06:25:18;16.53;;;13.53;;
4831;SDS011;2430;51.322;7.864;2023-07-20T06:27:45;20.63;;;13.80;;
4831;SDS011;2430;51.322;7.864;2023-07-20T06:30:12;18.33;;;13.63;;
4831;SDS011;2430;51.322;7.864;2023-07-20T06:32:38;12.83;;;11.53;;
4831;SDS011;2430;51.322;7.864;2023-07-20T06:35:05;14.30;;;11.47;;
4831;SDS011;2430;51.322;7.864;2023-07-20T06:37:31;17.30;;;12.80;;
4831;SDS011;2430;51.322;7.864;2023-07-20T06:39:59;16.03;;;11.73;;
4831;SDS011;2430;51.322;7.864;2023-07-20T06:42:25;10.97;;;9.87;;
4831;SDS011;2430;51.322;7.864;2023-07-20T06:44:52;14.13;;;10.07;;
4831;SDS011;2430;51.322;7.864;2023-07-20T06:47:21;12.60;;;9.30;;
4831;SDS011;2430;51.322;7.864;2023-07-20T06:49:47;9.77;;;8.77;;
4831;SDS011;2430;51.322;7.864;2023-07-20T06:52:14;10.27;;;7.93;;
4831;SDS011;2430;51.322;7.864;2023-07-20T06:54:41;10.67;;;6.10;;
4831;SDS011;2430;51.322;7.864;2023-07-20T06:57:08;10.13;;;6.20;;
4831;SDS011;2430;51.322;7.864;2023-07-20T06:59:35;8.37;;;7.50;;
4831;SDS011;2430;51.322;7.864;2023-07-20T07:02:01;7.33;;;6.20;;
4831;SDS011;2430;51.322;7.864;2023-07-20T07:04:37;8.40;;;6.27;;
4831;SDS011;2430;51.322;7.864;2023-07-20T07:07:04;7.80;;;6.37;;
4831;SDS011;2430;51.322;7.864;2023-07-20T07:09:30;9.00;;;6.70;;
4831;SDS011;2430;51.322;7.864;2023-07-20T07:11:57;8.17;;;7.30;;
4831;SDS011;2430;51.322;7.864;2023-07-20T07:14:25;11.17;;;8.10;;
4831;SDS011;2430;51.322;7.864;2023-07-20T07:16:51;8.77;;;7.80;;
4831;SDS011;2430;51.322;7.864;2023-07-20T07:19:18;8.70;;;7.80;;
4831;SDS011;2430;51.322;7.864;2023-07-20T07:21:44;8.23;;;7.43;;
4831;SDS011;2430;51.322;7.864;2023-07-20T07:24:11;9.80;;;8.27;;
4831;SDS011;2430;51.322;7.864;2023-07-20T07:26:37;11.70;;;9.17;;
4831;SDS011;2430;51.322;7.864;2023-07-20T07:29:03;8.60;;;7.43;;
4831;SDS011;2430;51.322;7.864;2023-07-20T07:31:33;8.40;;;7.50;;
4831;SDS011;2430;51.322;7.864;2023-07-20T07:34:00;13.07;;;7.50;;
4831;SDS011;2430;51.322;7.864;2023-07-20T07:36:26;7.37;;;6.57;;
4831;SDS011;2430;51.322;7.864;2023-07-20T07:38:52;6.63;;;5.53;;
4831;SDS011;2430;51.322;7.864;2023-07-20T07:41:19;6.30;;;5.50;;
4831;SDS011;2430;51.322;7.864;2023-07-20T07:43:45;7.40;;;6.70;;
4831;SDS011;2430;51.322;7.864;2023-07-20T07:46:12;5.53;;;4.83;;
4831;SDS011;2430;51.322;7.864;2023-07-20T07:48:40;5.80;;;5.30;;
4831;SDS011;2430;51.322;7.864;2023-07-20T07:51:06;5.93;;;5.43;;
4831;SDS011;2430;51.322;7.864;2023-07-20T07:53:33;6.03;;;5.53;;
4831;SDS011;2430;51.322;7.864;2023-07-20T07:56:00;6.70;;;6.10;;
4831;SDS011;2430;51.322;7.864;2023-07-20T07:58:31;6.60;;;6.00;;
4831;SDS011;2430;51.322;7.864;2023-07-20T08:00:58;6.53;;;4.93;;
4831;SDS011;2430;51.322;7.864;2023-07-20T08:03:24;5.70;;;5.20;;
4831;SDS011;2430;51.322;7.864;2023-07-20T08:05:53;6.77;;;5.07;;
4831;SDS011;2430;51.322;7.864;2023-07-20T08:08:20;5.40;;;4.90;;
4831;SDS011;2430;51.322;7.864;2023-07-20T08:10:46;7.20;;;4.67;;
4831;SDS011;2430;51.322;7.864;2023-07-20T08:13:13;4.10;;;3.80;;
4831;SDS011;2430;51.322;7.864;2023-07-20T08:15:39;4.23;;;3.87;;
4831;SDS011;2430;51.322;7.864;2023-07-20T08:18:06;4.40;;;4.00;;
4831;SDS011;2430;51.322;7.864;2023-07-20T08:20:33;4.10;;;3.33;;
4831;SDS011;2430;51.322;7.864;2023-07-20T08:23:02;3.57;;;2.90;;
4831;SDS011;2430;51.322;7.864;2023-07-20T08:25:28;4.57;;;3.20;;
4831;SDS011;2430;51.322;7.864;2023-07-20T08:27:55;4.73;;;3.00;;
4831;SDS011;2430;51.322;7.864;2023-07-20T08:30:21;4.90;;;3.57;;
4831;SDS011;2430;51.322;7.864;2023-07-20T08:32:48;2.87;;;2.50;;
4831;SDS011;2430;51.322;7.864;2023-07-20T08:35:14;3.70;;;2.60;;
4831;SDS011;2430;51.322;7.864;2023-07-20T08:37:41;4.93;;;2.80;;
4831;SDS011;2430;51.322;7.864;2023-07-20T08:40:12;3.83;;;2.90;;
4831;SDS011;2430;51.322;7.864;2023-07-20T08:42:40;3.20;;;2.90;;
4831;SDS011;2430;51.322;7.864;2023-07-20T08:45:07;3.60;;;2.73;;
4831;SDS011;2430;51.322;7.864;2023-07-20T08:47:34;3.20;;;2.70;;
4831;SDS011;2430;51.322;7.864;2023-07-20T08:50:01;2.77;;;2.57;;
4831;SDS011;2430;51.322;7.864;2023-07-20T08:52:31;3.07;;;2.77;;
4831;SDS011;2430;51.322;7.864;2023-07-20T08:54:59;3.90;;;2.67;;
4831;SDS011;2430;51.322;7.864;2023-07-20T08:57:29;3.37;;;2.93;;
4831;SDS011;2430;51.322;7.864;2023-07-20T08:59:57;3.83;;;3.00;;
4831;SDS011;2430;51.322;7.864;2023-07-20T09:02:24;2.60;;;2.40;;
4831;SDS011;2430;51.322;7.864;2023-07-20T09:04:51;2.70;;;2.50;;
4831;SDS011;2430;51.322;7.864;2023-07-20T09:07:17;3.23;;;3.03;;
4831;SDS011;2430;51.322;7.864;2023-07-20T09:09:45;2.90;;;2.60;;
4831;SDS011;2430;51.322;7.864;2023-07-20T09:12:14;2.50;;;2.30;;
4831;SDS011;2430;51.322;7.864;2023-07-20T09:14:43;2.27;;;2.07;;
4831;SDS011;2430;51.322;7.864;2023-07-20T09:17:12;2.20;;;2.00;;
4831;SDS011;2430;51.322;7.864;2023-07-20T09:22:26;1.80;;;1.57;;
4831;SDS011;2430;51.322;7.864;2023-07-20T09:24:55;1.67;;;1.57;;
4831;SDS011;2430;51.322;7.864;2023-07-20T09:27:21;2.03;;;1.83;;
4831;SDS011;2430;51.322;7.864;2023-07-20T09:29:49;2.57;;;2.37;;
4831;SDS011;2430;51.322;7.864;2023-07-20T09:32:17;2.50;;;2.30;;
4831;SDS011;2430;51.322;7.864;2023-07-20T09:34:44;3.37;;;2.23;;
4831;SDS011;2430;51.322;7.864;2023-07-20T09:37:10;1.93;;;1.73;;
4831;SDS011;2430;51.322;7.864;2023-07-20T09:39:43;2.40;;;1.60;;
4831;SDS011;2430;51.322;7.864;2023-07-20T09:42:10;2.03;;;1.60;;
4831;SDS011;2430;51.322;7.864;2023-07-20T09:44:37;1.60;;;1.50;;
4831;SDS011;2430;51.322;7.864;2023-07-20T09:47:05;7.20;;;1.90;;
4831;SDS011;2430;51.322;7.864;2023-07-20T09:49:32;4.27;;;2.30;;
4831;SDS011;2430;51.322;7.864;2023-07-20T09:51:58;2.10;;;1.80;;
4831;SDS011;2430;51.322;7.864;2023-07-20T09:54:27;2.73;;;1.60;;
4831;SDS011;2430;51.322;7.864;2023-07-20T09:56:54;1.70;;;1.50;;
4831;SDS011;2430;51.322;7.864;2023-07-20T09:59:21;1.80;;;1.67;;
4831;SDS011;2430;51.322;7.864;2023-07-20T10:01:48;1.70;;;1.60;;
4831;SDS011;2430;51.322;7.864;2023-07-20T10:04:15;2.63;;;1.47;;
4831;SDS011;2430;51.322;7.864;2023-07-20T10:06:42;2.20;;;2.00;;
4831;SDS011;2430;51.322;7.864;2023-07-20T10:09:10;2.03;;;1.80;;
4831;SDS011;2430;51.322;7.864;2023-07-20T10:11:40;1.97;;;1.60;;
4831;SDS011;2430;51.322;7.864;2023-07-20T10:14:07;2.10;;;1.50;;
4831;SDS011;2430;51.322;7.864;2023-07-20T10:16:36;1.50;;;1.40;;
4831;SDS011;2430;51.322;7.864;2023-07-20T10:19:05;2.10;;;1.90;;
4831;SDS011;2430;51.322;7.864;2023-07-20T10:21:35;2.20;;;2.00;;
4831;SDS011;2430;51.322;7.864;2023-07-20T10:24:03;2.77;;;1.90;;
4831;SDS011;2430;51.322;7.864;2023-07-20T10:26:30;3.73;;;1.63;;
4831;SDS011;2430;51.322;7.864;2023-07-20T10:28:56;3.90;;;1.70;;
4831;SDS011;2430;51.322;7.864;2023-07-20T10:31:23;8.67;;;2.03;;
4831;SDS011;2430;51.322;7.864;2023-07-20T10:33:49;2.10;;;1.53;;
4831;SDS011;2430;51.322;7.864;2023-07-20T10:36:21;1.93;;;1.63;;
4831;SDS011;2430;51.322;7.864;2023-07-20T10:38:53;2.27;;;1.50;;
4831;SDS011;2430;51.322;7.864;2023-07-20T10:41:20;3.87;;;1.90;;
4831;SDS011;2430;51.322;7.864;2023-07-20T10:43:49;1.20;;;1.10;;
4831;SDS011;2430;51.322;7.864;2023-07-20T10:46:33;2.50;;;1.40;;
4831;SDS011;2430;51.322;7.864;2023-07-20T10:49:00;1.20;;;1.10;;
4831;SDS011;2430;51.322;7.864;2023-07-20T10:51:27;1.73;;;1.10;;
4831;SDS011;2430;51.322;7.864;2023-07-20T10:53:55;1.23;;;1.10;;
4831;SDS011;2430;51.322;7.864;2023-07-20T10:56:25;3.87;;;1.30;;
4831;SDS011;2430;51.322;7.864;2023-07-20T10:58:54;1.30;;;1.20;;
4831;SDS011;2430;51.322;7.864;2023-07-20T11:01:21;1.40;;;1.30;;
4831;SDS011;2430;51.322;7.864;2023-07-20T11:03:48;2.10;;;1.30;;
4831;SDS011;2430;51.322;7.864;2023-07-20T11:06:31;1.60;;;1.30;;
4831;SDS011;2430;51.322;7.864;2023-07-20T11:09:04;2.60;;;1.20;;
4831;SDS011;2430;51.322;7.864;2023-07-20T11:11:31;1.10;;;1.00;;
4831;SDS011;2430;51.322;7.864;2023-07-20T11:13:58;1.30;;;1.20;;
4831;SDS011;2430;51.322;7.864;2023-07-20T11:16:32;2.20;;;1.23;;
4831;SDS011;2430;51.322;7.864;2023-07-20T11:18:58;2.23;;;1.10;;
4831;SDS011;2430;51.322;7.864;2023-07-20T11:21:25;1.43;;;1.20;;
4831;SDS011;2430;51.322;7.864;2023-07-20T11:23:51;2.97;;;1.13;;
4831;SDS011;2430;51.322;7.864;2023-07-20T11:26:19;1.90;;;1.10;;
4831;SDS011;2430;51.322;7.864;2023-07-20T11:28:48;1.30;;;1.20;;
4831;SDS011;2430;51.322;7.864;2023-07-20T11:31:14;1.80;;;1.10;;
4831;SDS011;2430;51.322;7.864;2023-07-20T11:33:41;1.67;;;1.20;;
4831;SDS011;2430;51.322;7.864;2023-07-20T11:36:08;7.80;;;1.10;;
4831;SDS011;2430;51.322;7.864;2023-07-20T11:38:34;1.50;;;1.20;;
4831;SDS011;2430;51.322;7.864;2023-07-20T11:41:02;1.10;;;1.00;;
4831;SDS011;2430;51.322;7.864;2023-07-20T11:43:30;1.30;;;1.20;;
4831;SDS011;2430;51.322;7.864;2023-07-20T11:45:56;4.03;;;1.43;;
4831;SDS011;2430;51.322;7.864;2023-07-20T11:48:23;2.50;;;1.20;;
4831;SDS011;2430;51.322;7.864;2023-07-20T11:50:49;1.37;;;1.27;;
4831;SDS011;2430;51.322;7.864;2023-07-20T11:53:15;2.60;;;1.20;;
4831;SDS011;2430;51.322;7.864;2023-07-20T11:55:42;1.50;;;1.07;;
4831;SDS011;2430;51.322;7.864;2023-07-20T11:58:08;1.30;;;1.20;;
4831;SDS011;2430;51.322;7.864;2023-07-20T12:00:37;1.07;;;0.97;;
4831;SDS011;2430;51.322;7.864;2023-07-20T12:03:05;4.10;;;1.17;;
4831;SDS011;2430;51.322;7.864;2023-07-20T12:05:31;0.90;;;0.80;;
4831;SDS011;2430;51.322;7.864;2023-07-20T12:07:58;1.87;;;1.00;;
4831;SDS011;2430;51.322;7.864;2023-07-20T12:10:25;1.00;;;0.90;;
4831;SDS011;2430;51.322;7.864;2023-07-20T12:12:51;1.10;;;1.00;;
4831;SDS011;2430;51.322;7.864;2023-07-20T12:15:20;2.60;;;1.00;;
4831;SDS011;2430;51.322;7.864;2023-07-20T12:17:49;6.63;;;1.00;;
4831;SDS011;2430;51.322;7.864;2023-07-20T12:20:24;2.40;;;1.10;;
4831;SDS011;2430;51.322;7.864;2023-07-20T12:22:50;1.07;;;0.97;;
4831;SDS011;2430;51.322;7.864;2023-07-20T12:25:17;0.93;;;0.90;;
4831;SDS011;2430;51.322;7.864;2023-07-20T12:27:45;2.50;;;1.30;;
4831;SDS011;2430;51.322;7.864;2023-07-20T12:30:12;1.07;;;0.97;;
4831;SDS011;2430;51.322;7.864;2023-07-20T12:32:39;1.37;;;1.10;;
4831;SDS011;2430;51.322;7.864;2023-07-20T12:35:07;1.43;;;1.03;;
4831;SDS011;2430;51.322;7.864;2023-07-20T12:37:33;1.30;;;1.03;;
4831;SDS011;2430;51.322;7.864;2023-07-20T12:40:00;1.10;;;1.00;;
4831;SDS011;2430;51.322;7.864;2023-07-20T12:42:26;2.00;;;1.30;;
4831;SDS011;2430;51.322;7.864;2023-07-20T12:44:52;2.20;;;0.93;;
4831;SDS011;2430;51.322;7.864;2023-07-20T12:47:19;2.03;;;1.00;;
4831;SDS011;2430;51.322;7.864;2023-07-20T12:49:45;3.60;;;1.00;;
4831;SDS011;2430;51.322;7.864;2023-07-20T12:52:13;1.67;;;1.00;;
4831;SDS011;2430;51.322;7.864;2023-07-20T12:54:39;1.23;;;1.10;;
4831;SDS011;2430;51.322;7.864;2023-07-20T12:57:06;1.50;;;1.23;;
4831;SDS011;2430;51.322;7.864;2023-07-20T12:59:32;1.10;;;1.00;;
4831;SDS011;2430;51.322;7.864;2023-07-20T13:01:59;1.30;;;1.20;;
4831;SDS011;2430;51.322;7.864;2023-07-20T13:04:25;2.03;;;1.20;;
4831;SDS011;2430;51.322;7.864;2023-07-20T13:06:51;1.40;;;0.93;;
4831;SDS011;2430;51.322;7.864;2023-07-20T13:09:19;1.27;;;0.97;;
4831;SDS011;2430;51.322;7.864;2023-07-20T13:11:45;1.27;;;1.13;;
4831;SDS011;2430;51.322;7.864;2023-07-20T13:14:12;1.93;;;1.20;;
4831;SDS011;2430;51.322;7.864;2023-07-20T13:16:38;2.13;;;1.10;;
4831;SDS011;2430;51.322;7.864;2023-07-20T13:19:04;1.30;;;1.10;;
4831;SDS011;2430;51.322;7.864;2023-07-20T13:21:31;2.57;;;1.20;;
4831;SDS011;2430;51.322;7.864;2023-07-20T13:23:57;1.20;;;1.10;;
4831;SDS011;2430;51.322;7.864;2023-07-20T13:26:25;1.50;;;1.20;;
4831;SDS011;2430;51.322;7.864;2023-07-20T13:28:52;4.80;;;1.20;;
4831;SDS011;2430;51.322;7.864;2023-07-20T13:31:18;2.70;;;1.50;;
4831;SDS011;2430;51.322;7.864;2023-07-20T13:33:46;2.20;;;1.47;;
4831;SDS011;2430;51.322;7.864;2023-07-20T13:36:12;1.20;;;1.10;;
4831;SDS011;2430;51.322;7.864;2023-07-20T13:38:38;1.63;;;1.07;;
4831;SDS011;2430;51.322;7.864;2023-07-20T13:41:05;1.60;;;1.40;;
4831;SDS011;2430;51.322;7.864;2023-07-20T13:43:32;1.47;;;1.10;;
4831;SDS011;2430;51.322;7.864;2023-07-20T13:45:59;1.93;;;0.90;;
4831;SDS011;2430;51.322;7.864;2023-07-20T13:48:28;2.37;;;1.13;;
4831;SDS011;2430;51.322;7.864;2023-07-20T13:50:54;3.23;;;1.00;;
4831;SDS011;2430;51.322;7.864;2023-07-20T13:53:21;1.20;;;1.10;;
4831;SDS011;2430;51.322;7.864;2023-07-20T13:55:48;1.97;;;1.30;;
4831;SDS011;2430;51.322;7.864;2023-07-20T13:58:14;1.37;;;1.27;;
4831;SDS011;2430;51.322;7.864;2023-07-20T14:00:42;1.60;;;1.40;;
4831;SDS011;2430;51.322;7.864;2023-07-20T14:03:08;1.30;;;1.17;;
4831;SDS011;2430;51.322;7.864;2023-07-20T14:05:34;1.50;;;1.37;;
4831;SDS011;2430;51.322;7.864;2023-07-20T14:08:01;2.70;;;1.33;;
4831;SDS011;2430;51.322;7.864;2023-07-20T14:10:27;3.20;;;1.80;;
4831;SDS011;2430;51.322;7.864;2023-07-20T14:12:54;1.83;;;1.50;;
4831;SDS011;2430;51.322;7.864;2023-07-20T14:15:20;1.30;;;1.20;;
4831;SDS011;2430;51.322;7.864;2023-07-20T14:17:48;2.17;;;1.50;;
4831;SDS011;2430;51.322;7.864;2023-07-20T14:20:14;2.10;;;1.33;;
4831;SDS011;2430;51.322;7.864;2023-07-20T14:22:43;1.97;;;1.20;;
4831;SDS011;2430;51.322;7.864;2023-07-20T14:25:10;2.50;;;1.53;;
4831;SDS011;2430;51.322;7.864;2023-07-20T14:27:36;3.00;;;1.30;;
4831;SDS011;2430;51.322;7.864;2023-07-20T14:30:03;3.63;;;1.60;;
4831;SDS011;2430;51.322;7.864;2023-07-20T14:32:29;1.30;;;1.20;;
4831;SDS011;2430;51.322;7.864;2023-07-20T14:34:57;1.70;;;1.37;;
4831;SDS011;2430;51.322;7.864;2023-07-20T14:37:25;2.70;;;1.33;;
4831;SDS011;2430;51.322;7.864;2023-07-20T14:39:51;2.30;;;1.77;;
4831;SDS011;2430;51.322;7.864;2023-07-20T14:42:18;1.53;;;1.43;;
4831;SDS011;2430;51.322;7.864;2023-07-20T14:44:44;2.00;;;1.40;;
4831;SDS011;2430;51.322;7.864;2023-07-20T14:47:10;3.73;;;1.50;;
4831;SDS011;2430;51.322;7.864;2023-07-20T14:49:37;3.40;;;1.30;;
4831;SDS011;2430;51.322;7.864;2023-07-20T14:52:05;1.40;;;1.30;;
4831;SDS011;2430;51.322;7.864;2023-07-20T14:54:31;1.83;;;1.37;;
4831;SDS011;2430;51.322;7.864;2023-07-20T14:56:58;1.33;;;1.23;;
4831;SDS011;2430;51.322;7.864;2023-07-20T14:59:24;1.63;;;1.40;;
4831;SDS011;2430;51.322;7.864;2023-07-20T15:01:50;1.57;;;1.47;;
4831;SDS011;2430;51.322;7.864;2023-07-20T15:04:18;9.10;;;1.83;;
4831;SDS011;2430;51.322;7.864;2023-07-20T15:06:44;1.43;;;1.33;;
4831;SDS011;2430;51.322;7.864;2023-07-20T15:09:12;1.80;;;1.43;;